TimeMDT,TemperatureF,Dew PointF,Humidity,Sea Level PressureIn,VisibilityMPH,Wind Direction,Wind SpeedMPH,Gust SpeedMPH,PrecipitationIn,Events,Conditions,WindDirDegrees,DateUTC
12:53 AM,43.0,-9.9,10,30.04,10.0,NE,16.1,-,N/A,,Clear,40,2013-05-02 06:53:00
1:53 AM,42.1,-4.0,14,30.06,10.0,NE,15.0,-,N/A,,Clear,40,2013-05-02 07:53:00
2:53 AM,39.9,-0.9,18,30.09,10.0,NE,12.7,-,N/A,,Clear,40,2013-05-02 08:53:00
3:53 AM,37.0,-0.0,21,30.12,10.0,NE,6.9,-,N/A,,Clear,50,2013-05-02 09:53:00
4:53 AM,34.0,1.0,25,30.16,10.0,NW,4.6,-,N/A,,Clear,320,2013-05-02 10:53:00
5:53 AM,28.9,-0.0,29,30.22,10.0,Calm,Calm,-,N/A,,Clear,0,2013-05-02 11:53:00
6:53 AM,25.0,-0.0,34,30.31,10.0,Calm,Calm,-,N/A,,Clear,0,2013-05-02 12:53:00
7:53 AM,36.0,1.9,24,30.28,10.0,Calm,Calm,-,N/A,,Clear,0,2013-05-02 13:53:00
8:53 AM,46.9,-0.0,14,30.28,10.0,NNE,15.0,21.9,N/A,,Clear,30,2013-05-02 14:53:00
9:53 AM,48.0,-0.0,14,30.31,10.0,NNE,23.0,28.8,N/A,,Clear,20,2013-05-02 15:53:00
10:53 AM,48.9,1.0,14,30.33,10.0,NE,15.0,21.9,N/A,,Clear,40,2013-05-02 16:53:00
11:53 AM,51.1,-0.0,12,30.31,10.0,NE,9.2,16.1,N/A,,Clear,40,2013-05-02 17:53:00
12:53 PM,55.0,-0.9,10,30.27,10.0,Variable,6.9,17.3,N/A,,Clear,0,2013-05-02 18:53:00
1:53 PM,57.9,-9.9,6,30.25,10.0,NE,6.9,16.1,N/A,,Clear,50,2013-05-02 19:53:00
2:53 PM,60.1,-9.0,6,30.23,10.0,East,9.2,-,N/A,,Clear,80,2013-05-02 20:53:00
3:53 PM,60.1,-9.9,6,30.22,10.0,East,9.2,19.6,N/A,,Clear,90,2013-05-02 21:53:00
4:53 PM,60.1,-7.1,6,30.24,10.0,ENE,15.0,20.7,N/A,,Clear,70,2013-05-02 22:53:00
5:53 PM,59.0,-7.1,7,30.28,10.0,NE,11.5,17.3,N/A,,Clear,40,2013-05-02 23:53:00
6:53 PM,57.0,-7.1,7,30.32,10.0,East,10.4,-,N/A,,Clear,90,2013-05-03 00:53:00
7:53 PM,53.1,-6.0,9,30.26,10.0,NE,10.4,-,N/A,,Clear,40,2013-05-03 01:53:00
8:53 PM,46.9,-5.1,11,30.24,10.0,NE,10.4,-,N/A,,Clear,40,2013-05-03 02:53:00
9:53 PM,41.0,-5.1,14,30.27,10.0,Calm,Calm,-,N/A,,Clear,0,2013-05-03 03:53:00
10:53 PM,36.0,-6.0,17,30.29,10.0,NE,8.1,-,N/A,,Clear,40,2013-05-03 04:53:00
11:53 PM,36.0,-4.0,18,30.28,10.0,ENE,3.5,-,N/A,,Clear,60,2013-05-03 05:53:00